sensor_id;sensor_type;location;lat;lon;timestamp;noise_LAeq;noise_LA_min;noise_LA_max;noise_LA01;noise_LA95
72858;Laerm;62742;52.136;4.500;2023-01-13T00:01:23;52.75;48.01;56.20;;
72858;Laerm;62742;52.136;4.500;2023-01-13T00:03:50;52.80;46.19;55.27;;
72858;Laerm;62742;52.136;4.500;2023-01-13T00:06:19;51.85;47.23;55.36;;
72858;Laerm;62742;52.136;4.500;2023-01-13T00:08:50;52.56;47.43;55.42;;
72858;Laerm;62742;52.136;4.500;2023-01-13T00:11:17;52.52;47.17;55.24;;
72858;Laerm;62742;52.136;4.500;2023-01-13T00:13:44;52.15;46.97;54.98;;
72858;Laerm;62742;52.136;4.500;2023-01-13T00:16:13;52.32;47.37;56.31;;
72858;Laerm;62742;52.136;4.500;2023-01-13T00:18:40;52.36;48.30;55.72;;
72858;Laerm;62742;52.136;4.500;2023-01-13T00:21:15;50.86;47.00;54.75;;
72858;Laerm;62742;52.136;4.500;2023-01-13T00:23:42;52.29;47.17;55.08;;
72858;Laerm;62742;52.136;4.500;2023-01-13T00:26:17;51.70;47.66;54.48;;
72858;Laerm;62742;52.136;4.500;2023-01-13T00:28:44;52.22;47.59;54.94;;
72858;Laerm;62742;52.136;4.500;2023-01-13T00:31:13;51.85;47.58;54.60;;
72858;Laerm;62742;52.136;4.500;2023-01-13T00:33:40;52.32;47.38;55.33;;
72858;Laerm;62742;52.136;4.500;2023-01-13T00:36:08;52.17;47.80;54.89;;
72858;Laerm;62742;52.136;4.500;2023-01-13T00:38:35;52.41;47.29;54.77;;
72858;Laerm;62742;52.136;4.500;2023-01-13T00:41:09;52.78;47.94;55.58;;
72858;Laerm;62742;52.136;4.500;2023-01-13T00:43:36;52.53;47.40;54.89;;
72858;Laerm;62742;52.136;4.500;2023-01-13T00:46:05;52.11;47.26;54.80;;
72858;Laerm;62742;52.136;4.500;2023-01-13T00:48:32;52.40;47.25;55.21;;
72858;Laerm;62742;52.136;4.500;2023-01-13T00:51:21;50.78;46.28;57.83;;
72858;Laerm;62742;52.136;4.500;2023-01-13T00:53:50;52.64;47.29;56.12;;
72858;Laerm;62742;52.136;4.500;2023-01-13T00:56:22;52.40;47.20;55.06;;
72858;Laerm;62742;52.136;4.500;2023-01-13T00:58:48;52.37;47.32;55.09;;
72858;Laerm;62742;52.136;4.500;2023-01-13T01:01:17;52.16;47.19;54.82;;
72858;Laerm;62742;52.136;4.500;2023-01-13T01:03:46;49.18;44.24;55.64;;
72858;Laerm;62742;52.136;4.500;2023-01-13T01:06:17;48.75;46.19;51.54;;
72858;Laerm;62742;52.136;4.500;2023-01-13T01:08:44;48.49;45.90;56.27;;
72858;Laerm;62742;52.136;4.500;2023-01-13T01:11:18;48.24;44.78;51.20;;
72858;Laerm;62742;52.136;4.500;2023-01-13T01:13:45;48.34;45.51;54.73;;
72858;Laerm;62742;52.136;4.500;2023-01-13T01:16:15;49.07;45.13;54.55;;
72858;Laerm;62742;52.136;4.500;2023-01-13T01:18:44;48.27;44.85;54.68;;
72858;Laerm;62742;52.136;4.500;2023-01-13T01:21:12;48.38;45.52;54.12;;
72858;Laerm;62742;52.136;4.500;2023-01-13T01:23:39;48.66;45.71;51.40;;
72858;Laerm;62742;52.136;4.500;2023-01-13T01:26:16;48.38;46.03;51.02;;
72858;Laerm;62742;52.136;4.500;2023-01-13T01:28:43;48.22;44.92;54.23;;
72858;Laerm;62742;52.136;4.500;2023-01-13T01:31:13;48.26;42.55;55.46;;
72858;Laerm;62742;52.136;4.500;2023-01-13T01:33:40;50.44;46.02;55.00;;
72858;Laerm;62742;52.136;4.500;2023-01-13T01:36:07;52.26;47.25;55.14;;
72858;Laerm;62742;52.136;4.500;2023-01-13T01:38:34;52.39;47.18;55.01;;
72858;Laerm;62742;52.136;4.500;2023-01-13T01:41:00;52.72;47.29;55.38;;
72858;Laerm;62742;52.136;4.500;2023-01-13T01:43:58;52.63;47.38;54.95;;
72858;Laerm;62742;52.136;4.500;2023-01-13T01:51:54;51.07;47.06;55.60;;
72858;Laerm;62742;52.136;4.500;2023-01-13T01:54:27;50.22;47.19;54.59;;
72858;Laerm;62742;52.136;4.500;2023-01-13T01:56:57;50.92;47.21;55.31;;
72858;Laerm;62742;52.136;4.500;2023-01-13T01:59:24;51.16;46.65;54.92;;
72858;Laerm;62742;52.136;4.500;2023-01-13T02:01:52;51.08;47.69;55.22;;
72858;Laerm;62742;52.136;4.500;2023-01-13T02:04:24;51.70;47.76;54.84;;
72858;Laerm;62742;52.136;4.500;2023-01-13T02:06:54;51.66;47.57;55.11;;
72858;Laerm;62742;52.136;4.500;2023-01-13T02:09:24;51.24;47.46;55.18;;
72858;Laerm;62742;52.136;4.500;2023-01-13T02:11:51;52.18;47.65;55.25;;
72858;Laerm;62742;52.136;4.500;2023-01-13T02:14:36;51.24;47.18;55.00;;
72858;Laerm;62742;52.136;4.500;2023-01-13T02:23:03;51.71;47.79;55.39;;
72858;Laerm;62742;52.136;4.500;2023-01-13T02:31:41;51.25;47.79;54.68;;
72858;Laerm;62742;52.136;4.500;2023-01-13T02:34:23;52.13;47.37;55.32;;
72858;Laerm;62742;52.136;4.500;2023-01-13T02:37:05;52.97;47.69;55.41;;
72858;Laerm;62742;52.136;4.500;2023-01-13T02:39:36;51.94;46.90;55.28;;
72858;Laerm;62742;52.136;4.500;2023-01-13T02:42:13;52.01;46.93;55.45;;
72858;Laerm;62742;52.136;4.500;2023-01-13T02:45:15;50.54;45.72;54.65;;
72858;Laerm;62742;52.136;4.500;2023-01-13T02:47:46;51.57;47.16;54.87;;
72858;Laerm;62742;52.136;4.500;2023-01-13T02:50:17;51.60;46.88;55.15;;
72858;Laerm;62742;52.136;4.500;2023-01-13T02:52:55;49.50;46.61;52.47;;
72858;Laerm;62742;52.136;4.500;2023-01-13T02:55:29;49.24;45.89;54.79;;
72858;Laerm;62742;52.136;4.500;2023-01-13T02:58:00;49.84;46.31;53.69;;
72858;Laerm;62742;52.136;4.500;2023-01-13T03:00:28;49.65;46.74;54.24;;
72858;Laerm;62742;52.136;4.500;2023-01-13T03:02:55;50.33;46.01;54.83;;
72858;Laerm;62742;52.136;4.500;2023-01-13T03:05:22;51.23;47.17;55.54;;
72858;Laerm;62742;52.136;4.500;2023-01-13T03:21:26;50.66;46.23;54.85;;
72858;Laerm;62742;52.136;4.500;2023-01-13T03:24:02;50.91;46.07;54.88;;
72858;Laerm;62742;52.136;4.500;2023-01-13T03:29:16;51.22;45.88;54.81;;
72858;Laerm;62742;52.136;4.500;2023-01-13T03:31:55;48.79;44.86;53.98;;
72858;Laerm;62742;52.136;4.500;2023-01-13T03:34:29;48.73;45.60;52.58;;
72858;Laerm;62742;52.136;4.500;2023-01-13T03:37:01;50.45;45.78;54.55;;
72858;Laerm;62742;52.136;4.500;2023-01-13T03:39:32;51.41;46.73;54.19;;
72858;Laerm;62742;52.136;4.500;2023-01-13T03:42:04;49.51;45.28;53.69;;
72858;Laerm;62742;52.136;4.500;2023-01-13T03:44:39;48.72;45.93;53.26;;
72858;Laerm;62742;52.136;4.500;2023-01-13T03:47:26;48.13;45.14;50.97;;
72858;Laerm;62742;52.136;4.500;2023-01-13T03:50:03;49.09;45.60;54.14;;
72858;Laerm;62742;52.136;4.500;2023-01-13T03:52:37;50.51;46.09;54.52;;
72858;Laerm;62742;52.136;4.500;2023-01-13T03:55:08;50.55;46.50;54.95;;
72858;Laerm;62742;52.136;4.500;2023-01-13T03:58:02;50.15;45.84;53.99;;
72858;Laerm;62742;52.136;4.500;2023-01-13T04:00:37;50.99;46.71;54.92;;
72858;Laerm;62742;52.136;4.500;2023-01-13T04:03:09;51.40;45.54;55.16;;
72858;Laerm;62742;52.136;4.500;2023-01-13T04:05:41;50.32;45.77;54.17;;
72858;Laerm;62742;52.136;4.500;2023-01-13T04:08:20;49.69;45.64;55.18;;
72858;Laerm;62742;52.136;4.500;2023-01-13T04:13:34;49.92;45.67;55.64;;
72858;Laerm;62742;52.136;4.500;2023-01-13T04:16:04;49.41;45.42;53.74;;
72858;Laerm;62742;52.136;4.500;2023-01-13T04:18:31;50.48;46.05;55.02;;
72858;Laerm;62742;52.136;4.500;2023-01-13T04:21:00;50.93;46.32;54.64;;
72858;Laerm;62742;52.136;4.500;2023-01-13T04:23:27;47.30;44.01;51.99;;
72858;Laerm;62742;52.136;4.500;2023-01-13T04:25:54;47.09;44.41;51.05;;
72858;Laerm;62742;52.136;4.500;2023-01-13T04:28:21;46.89;44.28;50.69;;
72858;Laerm;62742;52.136;4.500;2023-01-13T04:30:48;46.61;43.07;49.50;;
72858;Laerm;62742;52.136;4.500;2023-01-13T04:33:15;50.83;44.83;54.40;;
72858;Laerm;62742;52.136;4.500;2023-01-13T04:35:44;50.79;45.46;54.00;;
72858;Laerm;62742;52.136;4.500;2023-01-13T04:38:15;50.18;45.19;54.43;;
72858;Laerm;62742;52.136;4.500;2023-01-13T04:40:42;50.52;45.75;54.15;;
72858;Laerm;62742;52.136;4.500;2023-01-13T04:43:09;50.56;46.08;54.26;;
72858;Laerm;62742;52.136;4.500;2023-01-13T04:45:35;51.22;46.08;54.47;;
72858;Laerm;62742;52.136;4.500;2023-01-13T04:48:02;51.90;46.94;54.58;;
72858;Laerm;62742;52.136;4.500;2023-01-13T04:50:28;52.65;47.35;55.16;;
72858;Laerm;62742;52.136;4.500;2023-01-13T04:52:54;51.85;47.07;55.17;;
72858;Laerm;62742;52.136;4.500;2023-01-13T04:55:22;52.00;47.22;55.34;;
72858;Laerm;62742;52.136;4.500;2023-01-13T04:57:48;51.94;46.32;55.49;;
72858;Laerm;62742;52.136;4.500;2023-01-13T05:00:17;50.41;46.18;54.22;;
72858;Laerm;62742;52.136;4.500;2023-01-13T05:02:44;50.58;44.97;54.39;;
72858;Laerm;62742;52.136;4.500;2023-01-13T05:05:10;49.59;45.46;54.73;;
72858;Laerm;62742;52.136;4.500;2023-01-13T05:07:37;50.80;45.72;54.92;;
72858;Laerm;62742;52.136;4.500;2023-01-13T05:10:03;51.51;45.23;55.11;;
72858;Laerm;62742;52.136;4.500;2023-01-13T05:12:29;51.82;46.44;54.70;;
72858;Laerm;62742;52.136;4.500;2023-01-13T05:15:14;50.77;45.39;54.51;;
72858;Laerm;62742;52.136;4.500;2023-01-13T05:18:00;50.91;44.84;54.35;;
72858;Laerm;62742;52.136;4.500;2023-01-13T05:20:26;50.42;45.42;54.17;;
72858;Laerm;62742;52.136;4.500;2023-01-13T05:22:53;50.24;44.66;54.62;;
72858;Laerm;62742;52.136;4.500;2023-01-13T05:25:39;50.82;46.28;54.53;;
72858;Laerm;62742;52.136;4.500;2023-01-13T05:28:06;49.47;44.62;53.98;;
72858;Laerm;62742;52.136;4.500;2023-01-13T05:30:38;48.46;45.15;53.50;;
72858;Laerm;62742;52.136;4.500;2023-01-13T05:33:09;50.29;45.32;54.27;;
72858;Laerm;62742;52.136;4.500;2023-01-13T05:35:43;50.59;45.22;54.38;;
72858;Laerm;62742;52.136;4.500;2023-01-13T05:38:10;50.15;44.90;54.15;;
72858;Laerm;62742;52.136;4.500;2023-01-13T05:40:40;50.24;45.45;54.43;;
72858;Laerm;62742;52.136;4.500;2023-01-13T05:43:25;49.70;44.46;53.89;;
72858;Laerm;62742;52.136;4.500;2023-01-13T05:48:19;49.20;44.67;54.15;;
72858;Laerm;62742;52.136;4.500;2023-01-13T05:50:46;51.58;45.67;54.54;;
72858;Laerm;62742;52.136;4.500;2023-01-13T05:53:15;51.28;45.79;54.55;;
72858;Laerm;62742;52.136;4.500;2023-01-13T05:55:43;51.26;46.44;54.79;;
72858;Laerm;62742;52.136;4.500;2023-01-13T05:58:11;50.57;45.72;54.62;;
72858;Laerm;62742;52.136;4.500;2023-01-13T06:00:37;50.50;45.56;53.99;;
72858;Laerm;62742;52.136;4.500;2023-01-13T06:03:04;50.80;45.63;54.10;;
72858;Laerm;62742;52.136;4.500;2023-01-13T06:05:31;49.13;44.56;53.11;;
72858;Laerm;62742;52.136;4.500;2023-01-13T06:07:58;48.65;45.78;51.54;;
72858;Laerm;62742;52.136;4.500;2023-01-13T06:10:26;49.57;45.44;53.70;;
72858;Laerm;62742;52.136;4.500;2023-01-13T06:12:52;50.77;46.13;54.27;;
72858;Laerm;62742;52.136;4.500;2023-01-13T06:15:19;51.44;46.27;55.00;;
72858;Laerm;62742;52.136;4.500;2023-01-13T06:17:45;49.48;44.76;53.78;;
72858;Laerm;62742;52.136;4.500;2023-01-13T06:20:13;49.81;44.73;53.75;;
72858;Laerm;62742;52.136;4.500;2023-01-13T06:22:41;48.84;44.66;53.46;;
72858;Laerm;62742;52.136;4.500;2023-01-13T06:25:16;49.90;45.11;54.92;;
72858;Laerm;62742;52.136;4.500;2023-01-13T06:27:44;49.86;44.55;54.38;;
72858;Laerm;62742;52.136;4.500;2023-01-13T06:30:11;50.18;45.61;53.96;;
72858;Laerm;62742;52.136;4.500;2023-01-13T06:32:42;50.10;45.29;54.37;;
72858;Laerm;62742;52.136;4.500;2023-01-13T06:35:13;50.51;45.54;53.76;;
72858;Laerm;62742;52.136;4.500;2023-01-13T06:37:43;51.36;44.60;54.75;;
72858;Laerm;62742;52.136;4.500;2023-01-13T06:40:11;50.59;45.24;54.96;;
72858;Laerm;62742;52.136;4.500;2023-01-13T06:42:40;50.30;45.43;53.90;;
72858;Laerm;62742;52.136;4.500;2023-01-13T06:45:25;51.18;45.56;54.85;;
72858;Laerm;62742;52.136;4.500;2023-01-13T06:47:52;49.99;45.30;54.09;;
72858;Laerm;62742;52.136;4.500;2023-01-13T06:50:19;50.14;45.02;54.07;;
72858;Laerm;62742;52.136;4.500;2023-01-13T06:52:46;51.59;46.46;54.81;;
72858;Laerm;62742;52.136;4.500;2023-01-13T06:55:12;50.47;46.38;54.07;;
72858;Laerm;62742;52.136;4.500;2023-01-13T06:57:52;49.30;44.63;53.66;;
72858;Laerm;62742;52.136;4.500;2023-01-13T07:00:20;49.02;45.20;53.46;;
72858;Laerm;62742;52.136;4.500;2023-01-13T07:02:47;50.10;45.99;54.08;;
72858;Laerm;62742;52.136;4.500;2023-01-13T07:05:14;49.61;45.51;53.86;;
72858;Laerm;62742;52.136;4.500;2023-01-13T07:07:41;49.90;44.80;53.96;;
72858;Laerm;62742;52.136;4.500;2023-01-13T07:10:08;49.94;44.83;53.51;;
72858;Laerm;62742;52.136;4.500;2023-01-13T07:12:39;50.27;45.93;54.31;;
72858;Laerm;62742;52.136;4.500;2023-01-13T07:15:26;50.11;44.85;55.07;;
72858;Laerm;62742;52.136;4.500;2023-01-13T07:17:52;49.69;45.44;53.70;;
72858;Laerm;62742;52.136;4.500;2023-01-13T07:20:18;49.92;45.19;53.84;;
72858;Laerm;62742;52.136;4.500;2023-01-13T07:22:45;49.61;44.64;54.47;;
72858;Laerm;62742;52.136;4.500;2023-01-13T07:25:11;47.28;44.43;50.69;;
72858;Laerm;62742;52.136;4.500;2023-01-13T07:27:37;47.99;45.27;51.05;;
72858;Laerm;62742;52.136;4.500;2023-01-13T07:30:05;47.56;44.31;50.79;;
72858;Laerm;62742;52.136;4.500;2023-01-13T07:32:32;47.39;44.42;52.34;;
72858;Laerm;62742;52.136;4.500;2023-01-13T07:34:59;48.00;44.43;52.37;;
72858;Laerm;62742;52.136;4.500;2023-01-13T07:37:34;48.82;45.57;52.34;;
72858;Laerm;62742;52.136;4.500;2023-01-13T07:40:05;48.19;44.99;51.20;;
72858;Laerm;62742;52.136;4.500;2023-01-13T07:42:31;47.72;44.88;51.22;;
72858;Laerm;62742;52.136;4.500;2023-01-13T07:45:16;48.26;45.28;51.68;;
72858;Laerm;62742;52.136;4.500;2023-01-13T07:47:42;48.22;44.83;51.27;;
72858;Laerm;62742;52.136;4.500;2023-01-13T07:50:09;48.22;45.42;51.21;;
72858;Laerm;62742;52.136;4.500;2023-01-13T07:52:35;48.20;44.94;51.25;;
72858;Laerm;62742;52.136;4.500;2023-01-13T07:55:02;47.80;44.76;50.68;;
72858;Laerm;62742;52.136;4.500;2023-01-13T07:57:28;47.80;44.39;51.61;;
72858;Laerm;62742;52.136;4.500;2023-01-13T07:59:54;48.23;44.78;51.53;;
72858;Laerm;62742;52.136;4.500;2023-01-13T08:02:20;47.86;44.54;50.72;;
72858;Laerm;62742;52.136;4.500;2023-01-13T08:04:47;48.34;44.88;51.63;;
72858;Laerm;62742;52.136;4.500;2023-01-13T08:07:13;48.33;44.82;51.97;;
72858;Laerm;62742;52.136;4.500;2023-01-13T08:09:39;48.98;45.91;52.82;;
72858;Laerm;62742;52.136;4.500;2023-01-13T08:12:06;47.94;45.00;51.44;;
72858;Laerm;62742;52.136;4.500;2023-01-13T08:14:50;48.33;45.35;52.92;;
72858;Laerm;62742;52.136;4.500;2023-01-13T08:17:18;48.44;45.21;52.12;;
72858;Laerm;62742;52.136;4.500;2023-01-13T08:19:45;49.97;45.54;53.69;;
72858;Laerm;62742;52.136;4.500;2023-01-13T08:22:11;50.22;46.00;53.05;;
72858;Laerm;62742;52.136;4.500;2023-01-13T08:24:37;50.23;46.02;56.10;;
72858;Laerm;62742;52.136;4.500;2023-01-13T08:27:04;49.96;45.73;54.20;;
72858;Laerm;62742;52.136;4.500;2023-01-13T08:29:30;50.13;45.98;54.82;;
72858;Laerm;62742;52.136;4.500;2023-01-13T08:31:56;49.92;46.34;53.60;;
72858;Laerm;62742;52.136;4.500;2023-01-13T08:34:23;50.44;46.18;54.50;;
72858;Laerm;62742;52.136;4.500;2023-01-13T08:36:49;49.83;46.12;55.33;;
72858;Laerm;62742;52.136;4.500;2023-01-13T08:39:15;49.30;46.71;52.92;;
72858;Laerm;62742;52.136;4.500;2023-01-13T08:41:43;49.21;46.40;52.77;;
72858;Laerm;62742;52.136;4.500;2023-01-13T08:44:23;49.21;46.42;52.03;;
72858;Laerm;62742;52.136;4.500;2023-01-13T08:46:51;48.81;45.99;51.89;;
72858;Laerm;62742;52.136;4.500;2023-01-13T08:49:17;48.45;45.82;54.60;;
72858;Laerm;62742;52.136;4.500;2023-01-13T08:51:44;49.14;46.04;55.68;;
72858;Laerm;62742;52.136;4.500;2023-01-13T08:54:10;49.27;45.45;53.19;;
72858;Laerm;62742;52.136;4.500;2023-01-13T08:56:37;48.66;46.25;52.03;;
72858;Laerm;62742;52.136;4.500;2023-01-13T08:59:03;49.33;46.51;52.13;;
72858;Laerm;62742;52.136;4.500;2023-01-13T09:01:30;49.09;45.82;52.89;;
72858;Laerm;62742;52.136;4.500;2023-01-13T09:03:57;48.45;45.11;51.58;;
72858;Laerm;62742;52.136;4.500;2023-01-13T09:06:23;48.98;45.39;53.37;;
72858;Laerm;62742;52.136;4.500;2023-01-13T09:08:49;49.05;46.14;51.73;;
72858;Laerm;62742;52.136;4.500;2023-01-13T09:11:23;48.53;45.88;51.70;;
72858;Laerm;62742;52.136;4.500;2023-01-13T09:14:09;48.51;45.44;52.21;;
72858;Laerm;62742;52.136;4.500;2023-01-13T09:16:35;49.25;44.75;52.54;;
72858;Laerm;62742;52.136;4.500;2023-01-13T09:19:02;49.12;45.60;52.51;;
72858;Laerm;62742;52.136;4.500;2023-01-13T09:21:28;48.56;45.28;51.43;;
72858;Laerm;62742;52.136;4.500;2023-01-13T09:23:54;48.17;44.71;53.57;;
72858;Laerm;62742;52.136;4.500;2023-01-13T09:26:20;48.20;45.17;51.71;;
72858;Laerm;62742;52.136;4.500;2023-01-13T09:28:46;47.93;44.93;53.49;;
72858;Laerm;62742;52.136;4.500;2023-01-13T09:31:13;48.94;45.22;53.44;;
72858;Laerm;62742;52.136;4.500;2023-01-13T09:33:39;48.78;45.14;52.48;;
72858;Laerm;62742;52.136;4.500;2023-01-13T09:36:24;48.71;45.04;55.64;;
72858;Laerm;62742;52.136;4.500;2023-01-13T09:38:50;47.77;44.75;51.23;;
72858;Laerm;62742;52.136;4.500;2023-01-13T09:41:19;47.74;44.24;51.38;;
72858;Laerm;62742;52.136;4.500;2023-01-13T09:44:11;47.68;44.12;51.67;;
72858;Laerm;62742;52.136;4.500;2023-01-13T09:46:45;48.07;45.03;52.27;;
72858;Laerm;62742;52.136;4.500;2023-01-13T09:49:26;47.78;44.84;51.72;;
72858;Laerm;62742;52.136;4.500;2023-01-13T09:52:20;47.68;43.86;51.22;;
72858;Laerm;62742;52.136;4.500;2023-01-13T09:54:59;47.28;43.41;51.51;;
72858;Laerm;62742;52.136;4.500;2023-01-13T09:57:27;47.88;44.54;51.13;;
72858;Laerm;62742;52.136;4.500;2023-01-13T09:59:57;47.37;43.94;51.07;;
72858;Laerm;62742;52.136;4.500;2023-01-13T10:03:14;46.97;43.78;51.15;;
72858;Laerm;62742;52.136;4.500;2023-01-13T10:05:38;46.74;43.14;50.69;;
72858;Laerm;62742;52.136;4.500;2023-01-13T10:08:32;47.56;44.20;52.50;;
72858;Laerm;62742;52.136;4.500;2023-01-13T10:11:01;47.32;43.91;51.55;;
72858;Laerm;62742;52.136;4.500;2023-01-13T10:13:51;47.32;44.10;50.73;;
72858;Laerm;62742;52.136;4.500;2023-01-13T10:19:25;47.09;44.23;49.95;;
72858;Laerm;62742;52.136;4.500;2023-01-13T10:32:58;47.62;44.59;50.47;;
72858;Laerm;62742;52.136;4.500;2023-01-13T10:41:02;47.04;43.81;49.85;;
72858;Laerm;62742;52.136;4.500;2023-01-13T10:43:29;47.50;44.50;50.26;;
72858;Laerm;62742;52.136;4.500;2023-01-13T10:46:03;47.37;44.28;50.21;;
72858;Laerm;62742;52.136;4.500;2023-01-13T10:48:42;47.33;43.90;49.98;;
72858;Laerm;62742;52.136;4.500;2023-01-13T10:53:51;46.91;43.75;53.08;;
72858;Laerm;62742;52.136;4.500;2023-01-13T10:56:19;47.01;44.02;50.40;;
72858;Laerm;62742;52.136;4.500;2023-01-13T10:58:47;46.94;43.70;50.67;;
72858;Laerm;62742;52.136;4.500;2023-01-13T11:01:25;46.89;43.72;49.98;;
72858;Laerm;62742;52.136;4.500;2023-01-13T11:03:55;47.31;44.09;50.60;;
72858;Laerm;62742;52.136;4.500;2023-01-13T11:06:25;47.65;44.55;50.76;;
72858;Laerm;62742;52.136;4.500;2023-01-13T11:08:54;49.36;44.86;54.50;;
72858;Laerm;62742;52.136;4.500;2023-01-13T11:11:41;48.76;45.47;51.91;;
72858;Laerm;62742;52.136;4.500;2023-01-13T11:14:48;48.49;44.04;51.86;;
72858;Laerm;62742;52.136;4.500;2023-01-13T11:17:26;47.94;44.40;51.48;;
72858;Laerm;62742;52.136;4.500;2023-01-13T11:20:04;47.91;44.72;52.04;;
72858;Laerm;62742;52.136;4.500;2023-01-13T11:22:47;47.94;43.79;52.91;;
72858;Laerm;62742;52.136;4.500;2023-01-13T11:25:25;47.32;43.76;51.35;;
72858;Laerm;62742;52.136;4.500;2023-01-13T11:28:04;47.47;44.26;50.96;;
72858;Laerm;62742;52.136;4.500;2023-01-13T11:30:45;47.67;44.37;51.28;;
72858;Laerm;62742;52.136;4.500;2023-01-13T11:33:19;47.43;43.86;51.20;;
72858;Laerm;62742;52.136;4.500;2023-01-13T11:36:00;47.65;44.46;51.39;;
72858;Laerm;62742;52.136;4.500;2023-01-13T11:38:43;47.50;44.50;51.30;;
72858;Laerm;62742;52.136;4.500;2023-01-13T11:41:42;48.14;45.29;51.45;;
72858;Laerm;62742;52.136;4.500;2023-01-13T11:46:35;48.36;45.21;52.43;;
72858;Laerm;62742;52.136;4.500;2023-01-13T11:49:02;48.08;45.11;51.09;;
72858;Laerm;62742;52.136;4.500;2023-01-13T11:51:35;48.68;44.89;51.59;;
72858;Laerm;62742;52.136;4.500;2023-01-13T11:57:23;48.35;45.43;51.53;;
72858;Laerm;62742;52.136;4.500;2023-01-13T12:05:40;48.54;43.50;53.23;;
72858;Laerm;62742;52.136;4.500;2023-01-13T12:08:21;48.27;45.12;51.36;;
72858;Laerm;62742;52.136;4.500;2023-01-13T12:16:26;49.15;44.61;52.27;;
72858;Laerm;62742;52.136;4.500;2023-01-13T12:19:22;48.72;45.57;51.90;;
72858;Laerm;62742;52.136;4.500;2023-01-13T12:22:09;48.57;45.08;51.26;;
72858;Laerm;62742;52.136;4.500;2023-01-13T12:24:58;48.06;44.69;51.88;;
72858;Laerm;62742;52.136;4.500;2023-01-13T12:28:13;48.27;45.34;51.25;;
72858;Laerm;62742;52.136;4.500;2023-01-13T12:30:50;48.48;45.22;51.32;;
72858;Laerm;62742;52.136;4.500;2023-01-13T12:38:45;48.27;44.37;51.87;;
72858;Laerm;62742;52.136;4.500;2023-01-13T12:44:02;48.13;44.44;51.21;;
72858;Laerm;62742;52.136;4.500;2023-01-13T12:46:48;48.37;45.61;51.04;;
72858;Laerm;62742;52.136;4.500;2023-01-13T12:49:41;48.88;45.18;51.91;;
72858;Laerm;62742;52.136;4.500;2023-01-13T12:52:13;48.66;45.43;52.47;;
72858;Laerm;62742;52.136;4.500;2023-01-13T13:00:11;48.50;45.14;51.71;;
72858;Laerm;62742;52.136;4.500;2023-01-13T13:02:39;48.81;45.55;52.21;;
72858;Laerm;62742;52.136;4.500;2023-01-13T13:07:44;48.14;45.51;50.83;;
72858;Laerm;62742;52.136;4.500;2023-01-13T13:10:27;48.09;45.18;50.76;;
72858;Laerm;62742;52.136;4.500;2023-01-13T13:12:59;48.47;45.88;51.07;;
72858;Laerm;62742;52.136;4.500;2023-01-13T13:15:48;48.49;45.18;51.43;;
72858;Laerm;62742;52.136;4.500;2023-01-13T13:18:23;49.04;45.50;52.36;;
72858;Laerm;62742;52.136;4.500;2023-01-13T13:26:29;48.18;44.85;51.07;;
72858;Laerm;62742;52.136;4.500;2023-01-13T13:37:50;48.27;42.03;56.00;;
72858;Laerm;62742;52.136;4.500;2023-01-13T13:40:43;48.40;45.34;53.75;;
72858;Laerm;62742;52.136;4.500;2023-01-13T13:43:31;47.97;44.77;50.82;;
72858;Laerm;62742;52.136;4.500;2023-01-13T13:46:23;47.93;45.14;51.02;;
72858;Laerm;62742;52.136;4.500;2023-01-13T13:49:09;47.94;44.84;50.95;;
72858;Laerm;62742;52.136;4.500;2023-01-13T13:51:46;47.85;45.23;50.34;;
72858;Laerm;62742;52.136;4.500;2023-01-13T13:54:20;48.17;44.71;51.38;;
72858;Laerm;62742;52.136;4.500;2023-01-13T13:56:48;47.85;45.02;50.45;;
72858;Laerm;62742;52.136;4.500;2023-01-13T13:59:22;48.04;45.13;50.77;;
72858;Laerm;62742;52.136;4.500;2023-01-13T14:01:51;48.02;45.19;51.48;;
72858;Laerm;62742;52.136;4.500;2023-01-13T14:04:30;48.44;45.37;51.11;;
72858;Laerm;62742;52.136;4.500;2023-01-13T14:07:00;48.88;46.17;52.24;;
72858;Laerm;62742;52.136;4.500;2023-01-13T14:09:37;48.49;45.14;51.76;;
72858;Laerm;62742;52.136;4.500;2023-01-13T14:12:21;48.95;45.83;51.57;;
72858;Laerm;62742;52.136;4.500;2023-01-13T14:14:48;48.55;45.84;51.14;;
72858;Laerm;62742;52.136;4.500;2023-01-13T14:17:28;48.23;45.31;51.13;;
72858;Laerm;62742;52.136;4.500;2023-01-13T14:20:00;48.68;46.06;51.44;;
72858;Laerm;62742;52.136;4.500;2023-01-13T14:22:27;48.02;44.99;51.22;;
72858;Laerm;62742;52.136;4.500;2023-01-13T14:24:54;47.91;45.47;50.66;;
72858;Laerm;62742;52.136;4.500;2023-01-13T14:27:24;47.83;42.36;54.61;;
72858;Laerm;62742;52.136;4.500;2023-01-13T14:29:53;47.88;44.68;52.39;;
72858;Laerm;62742;52.136;4.500;2023-01-13T14:32:28;48.21;45.27;50.59;;
72858;Laerm;62742;52.136;4.500;2023-01-13T14:34:56;47.82;44.52;50.92;;
72858;Laerm;62742;52.136;4.500;2023-01-13T14:37:29;48.08;44.86;51.25;;
72858;Laerm;62742;52.136;4.500;2023-01-13T14:39:57;48.34;45.17;50.96;;
72858;Laerm;62742;52.136;4.500;2023-01-13T14:42:23;48.21;45.22;51.35;;
72858;Laerm;62742;52.136;4.500;2023-01-13T14:44:52;48.50;44.71;51.53;;
72858;Laerm;62742;52.136;4.500;2023-01-13T14:47:26;48.30;44.98;51.06;;
72858;Laerm;62742;52.136;4.500;2023-01-13T14:52:36;48.14;45.08;50.86;;
72858;Laerm;62742;52.136;4.500;2023-01-13T14:55:30;48.01;44.90;50.84;;
72858;Laerm;62742;52.136;4.500;2023-01-13T14:58:27;47.49;44.31;52.11;;
72858;Laerm;62742;52.136;4.500;2023-01-13T15:01:25;47.87;44.50;51.87;;
72858;Laerm;62742;52.136;4.500;2023-01-13T15:03:52;47.50;44.32;50.73;;
72858;Laerm;62742;52.136;4.500;2023-01-13T15:06:23;47.15;43.90;50.07;;
72858;Laerm;62742;52.136;4.500;2023-01-13T15:08:51;47.22;44.01;49.84;;
72858;Laerm;62742;52.136;4.500;2023-01-13T15:11:26;48.20;43.73;52.38;;
72858;Laerm;62742;52.136;4.500;2023-01-13T15:13:59;48.05;44.90;51.26;;
72858;Laerm;62742;52.136;4.500;2023-01-13T15:16:28;47.97;44.47;51.22;;
72858;Laerm;62742;52.136;4.500;2023-01-13T15:18:56;47.05;43.76;50.46;;
72858;Laerm;62742;52.136;4.500;2023-01-13T15:21:23;47.12;44.24;52.17;;
72858;Laerm;62742;52.136;4.500;2023-01-13T15:23:50;47.30;44.47;50.55;;
72858;Laerm;62742;52.136;4.500;2023-01-13T15:26:22;47.72;44.99;50.64;;
72858;Laerm;62742;52.136;4.500;2023-01-13T15:28:50;47.94;45.10;50.64;;
72858;Laerm;62742;52.136;4.500;2023-01-13T15:31:17;47.23;44.32;49.99;;
72858;Laerm;62742;52.136;4.500;2023-01-13T15:33:44;48.43;44.91;54.09;;
72858;Laerm;62742;52.136;4.500;2023-01-13T15:36:25;48.13;45.16;50.81;;
72858;Laerm;62742;52.136;4.500;2023-01-13T15:38:52;47.90;44.60;51.75;;
72858;Laerm;62742;52.136;4.500;2023-01-13T15:41:19;47.82;44.23;51.41;;
72858;Laerm;62742;52.136;4.500;2023-01-13T15:44:04;47.68;44.53;53.04;;
72858;Laerm;62742;52.136;4.500;2023-01-13T15:46:50;48.42;44.87;51.98;;
72858;Laerm;62742;52.136;4.500;2023-01-13T15:49:24;48.41;45.70;51.27;;
72858;Laerm;62742;52.136;4.500;2023-01-13T15:51:51;47.96;44.48;50.88;;
72858;Laerm;62742;52.136;4.500;2023-01-13T15:54:18;48.35;45.24;54.90;;
72858;Laerm;62742;52.136;4.500;2023-01-13T15:56:47;48.23;45.60;51.34;;
72858;Laerm;62742;52.136;4.500;2023-01-13T15:59:16;48.19;45.34;50.75;;
72858;Laerm;62742;52.136;4.500;2023-01-13T16:01:44;48.56;45.15;51.87;;
72858;Laerm;62742;52.136;4.500;2023-01-13T16:04:10;49.17;45.98;54.91;;